Time;durP1;ratioP1;P1;durP2;ratioP2;P2;SDS_P1;SDS_P2;PMS_P1;PMS_P2;Temp;Humidity;BMP_temperature;BMP_pressure;BME280_temperature;BME280_humidity;BME280_pressure;Samples;Min_cycle;Max_cycle;Signal;HPM_P1;HPM_P2
2023/03/11 00:01:01;;;;;;;4.07;1.87;;;;;;;;;;767748;181;918447;-70
2023/03/11 00:03:28;;;;;;;3.50;1.90;;;;;;;;;;772903;182;916622;-71
2023/03/11 00:05:53;;;;;;;6.00;2.20;;;;;;;;;;767753;181;916255;-70
2023/03/11 00:08:19;;;;;;;8.27;2.10;;;;;;;;;;774793;180;915925;-75
2023/03/11 00:10:45;;;;;;;2.90;1.63;;;;;;;;;;776885;181;916641;-70
2023/03/11 00:13:11;;;;;;;6.80;2.50;;;;;;;;;;768112;180;918471;-70
2023/03/11 00:15:36;;;;;;;2.67;1.73;;;;;;;;;;767398;182;919496;-75
2023/03/11 00:18:02;;;;;;;3.73;1.60;;;;;;;;;;772936;181;919250;-75
2023/03/11 00:20:28;;;;;;;6.60;1.60;;;;;;;;;;771680;181;914325;-72
2023/03/11 00:22:54;;;;;;;4.90;1.63;;;;;;;;;;772557;180;918941;-73
2023/03/11 00:25:20;;;;;;;2.73;1.40;;;;;;;;;;774564;180;916205;-77
2023/03/11 00:27:46;;;;;;;2.63;1.37;;;;;;;;;;779789;179;918826;-71
2023/03/11 00:30:12;;;;;;;1.97;1.00;;;;;;;;;;768787;181;1097012;-70
2023/03/11 00:32:38;;;;;;;4.30;1.40;;;;;;;;;;768367;179;917864;-70
2023/03/11 00:35:04;;;;;;;3.30;1.33;;;;;;;;;;773525;181;1018762;-76
2023/03/11 00:37:30;;;;;;;2.77;1.50;;;;;;;;;;774400;180;920831;-69
2023/03/11 00:39:56;;;;;;;4.40;1.42;;;;;;;;;;768296;180;923297;-69
2023/03/11 00:42:22;;;;;;;2.50;1.43;;;;;;;;;;775224;182;818325;-70
2023/03/11 00:44:47;;;;;;;2.40;1.30;;;;;;;;;;766076;181;819989;-77
2023/03/11 00:47:13;;;;;;;2.73;1.60;;;;;;;;;;767727;182;920486;-69
2023/03/11 00:49:39;;;;;;;3.57;1.60;;;;;;;;;;762768;182;1020309;-76
2023/03/11 00:52:05;;;;;;;2.93;1.43;;;;;;;;;;753595;187;919293;-77
2023/03/11 00:54:31;;;;;;;2.20;1.47;;;;;;;;;;767320;179;913274;-77
2023/03/11 00:56:57;;;;;;;2.67;1.57;;;;;;;;;;766926;180;935831;-76
2023/03/11 00:59:23;;;;;;;4.33;1.53;;;;;;;;;;778263;180;918076;-68
2023/03/11 01:01:48;;;;;;;3.17;1.53;;;;;;;;;;769473;180;918620;-67
2023/03/11 01:04:14;;;;;;;3.60;1.70;;;;;;;;;;774226;181;919705;-68
2023/03/11 01:06:40;;;;;;;2.50;1.37;;;;;;;;;;781085;180;839253;-67
2023/03/11 01:09:06;;;;;;;3.17;1.40;;;;;;;;;;774718;180;1019608;-74
2023/03/11 01:11:32;;;;;;;2.87;1.57;;;;;;;;;;769936;182;920189;-73
2023/03/11 01:13:58;;;;;;;2.87;1.37;;;;;;;;;;779814;180;916304;-67
2023/03/11 01:16:23;;;;;;;3.20;1.50;;;;;;;;;;772647;181;939087;-67
2023/03/11 01:18:49;;;;;;;4.00;1.50;;;;;;;;;;769942;181;915902;-67
2023/03/11 01:21:15;;;;;;;5.77;1.40;;;;;;;;;;772955;181;916482;-66
2023/03/11 01:23:41;;;;;;;3.20;1.80;;;;;;;;;;775048;181;919446;-73
2023/03/11 01:26:07;;;;;;;3.07;1.17;;;;;;;;;;768534;181;947696;-68
2023/03/11 01:28:33;;;;;;;2.57;1.43;;;;;;;;;;773255;181;915763;-66
2023/03/11 01:30:58;;;;;;;2.77;1.23;;;;;;;;;;778810;181;811440;-73
2023/03/11 01:33:24;;;;;;;3.27;1.63;;;;;;;;;;773687;181;919210;-73
2023/03/11 01:35:50;;;;;;;3.50;1.37;;;;;;;;;;770292;181;820053;-73
2023/03/11 01:38:16;;;;;;;4.93;1.50;;;;;;;;;;772446;181;918368;-73
2023/03/11 01:40:42;;;;;;;1.97;1.20;;;;;;;;;;767416;180;918307;-72
2023/03/11 01:43:14;;;;;;;2.50;1.33;;;;;;;;;;768730;181;1533544;-73
2023/03/11 01:45:39;;;;;;;3.00;1.50;;;;;;;;;;758160;183;919170;-66
2023/03/11 01:48:05;;;;;;;4.00;1.40;;;;;;;;;;776131;180;913108;-67
2023/03/11 01:50:35;;;;;;;3.40;1.43;;;;;;;;;;768450;182;884100;-73
2023/03/11 01:53:01;;;;;;;2.40;1.23;;;;;;;;;;768059;182;1019125;-72
2023/03/11 01:55:27;;;;;;;2.97;1.23;;;;;;;;;;771834;181;918027;-67
2023/03/11 01:57:52;;;;;;;2.40;1.50;;;;;;;;;;781838;178;803782;-74
2023/03/11 02:00:18;;;;;;;2.03;1.13;;;;;;;;;;765603;179;921078;-66
2023/03/11 02:02:45;;;;;;;2.50;1.10;;;;;;;;;;770170;181;916077;-68
2023/03/11 02:05:11;;;;;;;2.53;1.10;;;;;;;;;;778734;181;818531;-73
2023/03/11 02:07:37;;;;;;;5.17;1.60;;;;;;;;;;761375;182;919695;-68
2023/03/11 02:10:06;;;;;;;2.15;1.23;;;;;;;;;;770741;181;915963;-67
2023/03/11 02:12:29;;;;;;;2.40;1.47;;;;;;;;;;774459;179;917662;-72
2023/03/11 02:14:55;;;;;;;2.10;1.20;;;;;;;;;;772598;180;853780;-72
2023/03/11 02:17:21;;;;;;;2.15;1.10;;;;;;;;;;769941;181;918070;-66
2023/03/11 02:19:51;;;;;;;2.30;1.20;;;;;;;;;;770781;182;918917;-71
2023/03/11 02:22:16;;;;;;;6.13;1.50;;;;;;;;;;767796;182;919575;-66
2023/03/11 02:24:48;;;;;;;3.43;1.30;;;;;;;;;;767596;180;919010;-71
2023/03/11 02:27:15;;;;;;;3.07;1.20;;;;;;;;;;769403;180;918123;-71
2023/03/11 02:29:40;;;;;;;3.37;1.60;;;;;;;;;;774962;181;923612;-65
2023/03/11 02:32:06;;;;;;;2.63;1.33;;;;;;;;;;767927;182;920192;-71
2023/03/11 02:34:32;;;;;;;2.40;1.43;;;;;;;;;;769994;181;919315;-66
2023/03/11 02:36:58;;;;;;;5.20;1.63;;;;;;;;;;774371;181;920567;-65
2023/03/11 02:39:29;;;;;;;2.37;1.23;;;;;;;;;;776430;181;918907;-65
2023/03/11 02:41:55;;;;;;;4.73;1.77;;;;;;;;;;767494;182;908753;-66
2023/03/11 02:44:21;;;;;;;2.40;1.37;;;;;;;;;;766629;179;908907;-66
2023/03/11 02:46:47;;;;;;;2.40;1.30;;;;;;;;;;775809;181;900968;-65
2023/03/11 02:49:13;;;;;;;2.20;1.53;;;;;;;;;;769112;181;920981;-70
2023/03/11 02:51:39;;;;;;;3.00;1.50;;;;;;;;;;767559;181;918717;-66
2023/03/11 02:54:04;;;;;;;3.20;1.10;;;;;;;;;;768355;181;918471;-70
2023/03/11 02:56:30;;;;;;;2.00;1.20;;;;;;;;;;774005;181;828391;-70
2023/03/11 02:58:56;;;;;;;3.47;1.33;;;;;;;;;;772063;180;919856;-69
2023/03/11 03:01:22;;;;;;;3.60;1.33;;;;;;;;;;772501;180;924058;-70
2023/03/11 03:03:48;;;;;;;2.50;1.40;;;;;;;;;;777282;180;920460;-70
2023/03/11 03:06:14;;;;;;;5.20;1.57;;;;;;;;;;766576;181;939008;-65
2023/03/11 03:08:39;;;;;;;2.20;1.30;;;;;;;;;;763569;182;918861;-71
2023/03/11 03:11:05;;;;;;;2.30;1.23;;;;;;;;;;772315;181;920635;-70
2023/03/11 03:13:31;;;;;;;3.70;1.70;;;;;;;;;;764947;182;1117727;-65
2023/03/11 03:15:57;;;;;;;2.40;1.33;;;;;;;;;;767268;181;919109;-67
2023/03/11 03:18:23;;;;;;;3.23;1.20;;;;;;;;;;772916;180;920490;-63
2023/03/11 03:20:49;;;;;;;2.40;1.50;;;;;;;;;;770687;181;847470;-68
2023/03/11 03:23:14;;;;;;;2.10;1.27;;;;;;;;;;772168;179;824536;-67
2023/03/11 03:25:41;;;;;;;2.20;1.10;;;;;;;;;;772442;179;1020492;-75
2023/03/11 03:28:07;;;;;;;2.75;1.10;;;;;;;;;;775506;181;885894;-75
2023/03/11 03:30:33;;;;;;;7.10;1.10;;;;;;;;;;771250;181;918407;-73
2023/03/11 03:32:59;;;;;;;2.37;1.27;;;;;;;;;;768877;178;919075;-66
2023/03/11 03:35:25;;;;;;;2.20;1.40;;;;;;;;;;774697;182;918785;-71
2023/03/11 03:37:50;;;;;;;2.03;1.07;;;;;;;;;;774159;180;919395;-71
2023/03/11 03:40:16;;;;;;;2.70;1.70;;;;;;;;;;771061;181;919062;-66
2023/03/11 03:42:43;;;;;;;2.20;1.23;;;;;;;;;;773169;180;919103;-69
2023/03/11 03:45:09;;;;;;;2.10;1.10;;;;;;;;;;767827;182;916652;-70
2023/03/11 03:47:35;;;;;;;2.20;1.30;;;;;;;;;;755328;181;2149093;-72
2023/03/11 03:50:01;;;;;;;2.07;1.17;;;;;;;;;;773053;180;1002902;-70
2023/03/11 03:52:27;;;;;;;1.90;1.03;;;;;;;;;;774401;181;917497;-76
2023/03/11 03:54:52;;;;;;;2.30;1.37;;;;;;;;;;771219;181;919182;-71
2023/03/11 03:57:18;;;;;;;2.30;1.40;;;;;;;;;;771738;181;816679;-70
2023/03/11 03:59:44;;;;;;;4.87;1.97;;;;;;;;;;775143;181;919098;-71
2023/03/11 04:02:10;;;;;;;2.53;1.80;;;;;;;;;;770351;181;918643;-71
2023/03/11 04:04:36;;;;;;;3.23;2.43;;;;;;;;;;774593;180;866870;-75
2023/03/11 04:07:02;;;;;;;2.37;1.70;;;;;;;;;;776813;181;901121;-75
2023/03/11 04:09:28;;;;;;;3.17;2.37;;;;;;;;;;773275;180;921051;-75
2023/03/11 04:11:53;;;;;;;2.80;1.80;;;;;;;;;;772251;181;912740;-74
2023/03/11 04:14:19;;;;;;;2.50;1.50;;;;;;;;;;773481;181;917036;-70
2023/03/11 04:16:45;;;;;;;2.70;1.77;;;;;;;;;;777664;181;920619;-74
2023/03/11 04:19:11;;;;;;;4.17;1.80;;;;;;;;;;772531;181;911137;-75
2023/03/11 04:21:37;;;;;;;3.20;2.13;;;;;;;;;;770068;181;920512;-75
2023/03/11 04:24:03;;;;;;;2.83;1.70;;;;;;;;;;777527;181;913747;-71
2023/03/11 04:26:28;;;;;;;3.10;2.27;;;;;;;;;;774132;180;916985;-77
2023/03/11 04:28:54;;;;;;;2.50;1.67;;;;;;;;;;771979;181;948618;-77
2023/03/11 04:31:20;;;;;;;2.90;1.70;;;;;;;;;;776463;181;918809;-79
2023/03/11 04:33:46;;;;;;;2.73;1.90;;;;;;;;;;772029;181;972129;-79
2023/03/11 04:36:12;;;;;;;4.30;2.03;;;;;;;;;;774190;179;921500;-69
2023/03/11 04:38:38;;;;;;;3.73;2.40;;;;;;;;;;770422;180;918793;-69
2023/03/11 04:41:03;;;;;;;2.80;1.93;;;;;;;;;;767595;183;918579;-69
2023/03/11 04:43:29;;;;;;;2.50;1.20;;;;;;;;;;770523;181;933142;-76
2023/03/11 04:45:55;;;;;;;2.57;1.63;;;;;;;;;;767609;180;917980;-67
2023/03/11 04:48:21;;;;;;;3.30;1.73;;;;;;;;;;773499;181;920720;-71
2023/03/11 04:50:47;;;;;;;2.80;1.60;;;;;;;;;;773051;181;1021112;-76
2023/03/11 04:53:13;;;;;;;2.83;1.77;;;;;;;;;;775101;180;908003;-67
2023/03/11 04:55:39;;;;;;;3.07;2.30;;;;;;;;;;778530;181;719941;-75
2023/03/11 04:58:04;;;;;;;3.03;1.90;;;;;;;;;;771800;181;880831;-75
2023/03/11 05:00:30;;;;;;;10.48;2.90;;;;;;;;;;767864;181;920011;-74
2023/03/11 05:02:56;;;;;;;2.95;1.80;;;;;;;;;;771726;180;883956;-67
2023/03/11 05:05:22;;;;;;;2.70;1.87;;;;;;;;;;757759;181;812288;-73
2023/03/11 05:07:48;;;;;;;3.30;2.10;;;;;;;;;;766146;181;918440;-72
2023/03/11 05:10:14;;;;;;;3.33;2.22;;;;;;;;;;772448;181;917255;-74
2023/03/11 05:12:40;;;;;;;3.23;1.97;;;;;;;;;;772109;181;873038;-70
2023/03/11 05:15:06;;;;;;;2.97;1.97;;;;;;;;;;770753;181;918598;-71
2023/03/11 05:17:32;;;;;;;4.03;2.47;;;;;;;;;;771399;181;920523;-73
2023/03/11 05:19:58;;;;;;;3.10;1.83;;;;;;;;;;776331;181;919745;-72
2023/03/11 05:22:24;;;;;;;3.30;2.13;;;;;;;;;;766892;181;919142;-65
2023/03/11 05:24:49;;;;;;;3.27;2.37;;;;;;;;;;764640;181;820926;-71
2023/03/11 05:27:18;;;;;;;2.73;1.87;;;;;;;;;;774520;180;918837;-72
2023/03/11 05:29:43;;;;;;;3.53;2.33;;;;;;;;;;772018;183;761304;-68
2023/03/11 05:32:09;;;;;;;3.03;1.83;;;;;;;;;;772313;180;815753;-72
2023/03/11 05:34:35;;;;;;;7.30;2.07;;;;;;;;;;766332;181;918939;-73
2023/03/11 05:37:01;;;;;;;3.47;2.50;;;;;;;;;;773840;182;760361;-73
2023/03/11 05:39:26;;;;;;;2.80;1.90;;;;;;;;;;767412;181;922352;-72
2023/03/11 05:41:55;;;;;;;3.47;2.17;;;;;;;;;;772350;181;920453;-66
2023/03/11 05:44:18;;;;;;;3.30;1.70;;;;;;;;;;776449;181;920826;-66
2023/03/11 05:46:44;;;;;;;3.77;2.10;;;;;;;;;;772317;181;918665;-65
2023/03/11 05:49:10;;;;;;;2.90;2.30;;;;;;;;;;764937;180;922660;-72
2023/03/11 05:51:36;;;;;;;3.30;2.17;;;;;;;;;;775634;181;909529;-75
2023/03/11 05:54:01;;;;;;;2.73;1.93;;;;;;;;;;772425;180;1092398;-66
2023/03/11 05:56:27;;;;;;;3.30;1.90;;;;;;;;;;772745;180;914508;-66
2023/03/11 05:58:53;;;;;;;2.83;2.10;;;;;;;;;;769400;181;936425;-74
2023/03/11 06:01:19;;;;;;;3.07;2.10;;;;;;;;;;775257;180;913225;-77
2023/03/11 06:03:45;;;;;;;3.70;2.27;;;;;;;;;;771707;180;922462;-77
2023/03/11 06:06:11;;;;;;;3.97;2.42;;;;;;;;;;772828;181;919258;-67
2023/03/11 06:08:37;;;;;;;3.23;2.03;;;;;;;;;;775448;181;899897;-67
2023/03/11 06:11:04;;;;;;;3.67;2.60;;;;;;;;;;770783;180;919174;-67
2023/03/11 06:13:30;;;;;;;3.30;1.87;;;;;;;;;;767736;181;912579;-74
2023/03/11 06:15:56;;;;;;;3.20;1.83;;;;;;;;;;774764;181;814226;-64
2023/03/11 06:18:22;;;;;;;4.87;2.20;;;;;;;;;;765816;181;916961;-69
2023/03/11 06:20:48;;;;;;;3.20;2.00;;;;;;;;;;769713;181;920227;-62
2023/03/11 06:23:13;;;;;;;3.10;2.00;;;;;;;;;;767882;181;1018837;-69
2023/03/11 06:25:39;;;;;;;4.50;2.17;;;;;;;;;;776301;180;913544;-61
2023/03/11 06:28:05;;;;;;;3.93;2.23;;;;;;;;;;771521;180;918506;-67
2023/03/11 06:30:31;;;;;;;4.53;2.80;;;;;;;;;;767271;181;918962;-67
2023/03/11 06:32:57;;;;;;;3.67;2.43;;;;;;;;;;771189;182;921458;-68
2023/03/11 06:35:23;;;;;;;4.50;3.03;;;;;;;;;;768938;181;923557;-69
2023/03/11 06:37:48;;;;;;;4.53;2.90;;;;;;;;;;771125;181;918437;-61
2023/03/11 06:40:14;;;;;;;4.53;2.43;;;;;;;;;;776632;180;918770;-62
2023/03/11 06:42:40;;;;;;;3.90;2.70;;;;;;;;;;770478;181;918798;-67
2023/03/11 06:45:07;;;;;;;4.30;2.50;;;;;;;;;;768385;181;918582;-60
2023/03/11 06:47:33;;;;;;;4.07;3.20;;;;;;;;;;772572;181;918810;-67
2023/03/11 06:49:58;;;;;;;3.97;2.60;;;;;;;;;;775794;181;918549;-67
2023/03/11 06:52:24;;;;;;;4.97;3.10;;;;;;;;;;768902;181;954298;-62
2023/03/11 06:54:50;;;;;;;5.60;2.92;;;;;;;;;;766973;180;925061;-62
2023/03/11 06:57:16;;;;;;;4.17;2.60;;;;;;;;;;775241;181;919987;-68
2023/03/11 06:59:42;;;;;;;5.10;2.97;;;;;;;;;;775462;180;922192;-69
2023/03/11 07:02:08;;;;;;;3.67;2.70;;;;;;;;;;774568;180;918913;-61
2023/03/11 07:04:33;;;;;;;5.30;2.30;;;;;;;;;;774677;181;916069;-61
2023/03/11 07:06:59;;;;;;;4.47;2.90;;;;;;;;;;773861;180;918778;-68
2023/03/11 07:09:26;;;;;;;5.73;3.13;;;;;;;;;;772591;181;818073;-68
2023/03/11 07:11:51;;;;;;;4.03;2.50;;;;;;;;;;768945;180;1028777;-68
2023/03/11 07:14:17;;;;;;;3.63;2.10;;;;;;;;;;774700;177;863792;-60
2023/03/11 07:16:44;;;;;;;4.20;2.70;;;;;;;;;;770669;180;913594;-69
2023/03/11 07:19:09;;;;;;;5.33;3.37;;;;;;;;;;769665;181;915114;-67
2023/03/11 07:21:36;;;;;;;4.60;3.30;;;;;;;;;;775397;181;919859;-60
2023/03/11 07:24:01;;;;;;;4.03;2.70;;;;;;;;;;765978;180;818383;-60
2023/03/11 07:26:28;;;;;;;3.60;2.60;;;;;;;;;;768506;180;915130;-64
2023/03/11 07:28:53;;;;;;;5.87;3.37;;;;;;;;;;774305;180;919137;-59
2023/03/11 07:31:19;;;;;;;7.97;4.23;;;;;;;;;;765255;179;915526;-58
2023/03/11 07:33:45;;;;;;;4.68;3.12;;;;;;;;;;768104;179;814185;-62
2023/03/11 07:36:12;;;;;;;4.22;3.03;;;;;;;;;;768832;181;913934;-59
2023/03/11 07:38:38;;;;;;;4.30;2.97;;;;;;;;;;771258;179;903030;-62
2023/03/11 07:41:04;;;;;;;5.27;3.30;;;;;;;;;;772537;180;880398;-62
2023/03/11 07:43:30;;;;;;;5.83;3.57;;;;;;;;;;770415;180;942255;-62
2023/03/11 07:46:01;;;;;;;3.93;2.80;;;;;;;;;;775627;181;894454;-62
2023/03/11 07:48:27;;;;;;;8.77;3.20;;;;;;;;;;767593;180;917398;-61
2023/03/11 07:50:52;;;;;;;4.13;2.63;;;;;;;;;;766895;181;921363;-61
2023/03/11 07:53:19;;;;;;;6.07;3.20;;;;;;;;;;774069;180;918317;-60
2023/03/11 07:55:45;;;;;;;2.73;2.07;;;;;;;;;;762869;183;916895;-57
2023/03/11 07:58:10;;;;;;;4.00;2.57;;;;;;;;;;768795;180;897671;-57
2023/03/11 08:00:36;;;;;;;4.00;2.50;;;;;;;;;;767378;179;994179;-58
2023/03/11 08:03:02;;;;;;;6.10;2.47;;;;;;;;;;775384;181;911041;-58
2023/03/11 08:05:28;;;;;;;3.37;2.40;;;;;;;;;;770669;181;917541;-58
2023/03/11 08:07:54;;;;;;;2.83;2.10;;;;;;;;;;771648;180;919193;-60
2023/03/11 08:10:20;;;;;;;3.03;2.30;;;;;;;;;;772423;179;920980;-60
2023/03/11 08:12:46;;;;;;;3.70;2.13;;;;;;;;;;771307;179;918475;-61
2023/03/11 08:15:11;;;;;;;4.93;2.43;;;;;;;;;;770717;180;912257;-60
2023/03/11 08:17:37;;;;;;;2.33;1.60;;;;;;;;;;777720;180;816460;-62
2023/03/11 08:20:04;;;;;;;3.10;2.17;;;;;;;;;;771115;181;961042;-63
2023/03/11 08:22:29;;;;;;;3.17;2.27;;;;;;;;;;772203;181;914301;-59
2023/03/11 08:24:55;;;;;;;3.10;2.10;;;;;;;;;;771211;180;849273;-63
2023/03/11 08:27:21;;;;;;;3.20;2.33;;;;;;;;;;776194;180;815909;-59
2023/03/11 08:29:47;;;;;;;2.87;2.17;;;;;;;;;;771055;179;911973;-62
2023/03/11 08:32:13;;;;;;;3.30;2.43;;;;;;;;;;767450;181;896538;-60
2023/03/11 08:34:39;;;;;;;3.30;1.77;;;;;;;;;;774733;181;620457;-63
2023/03/11 08:37:04;;;;;;;3.13;1.73;;;;;;;;;;770656;180;919654;-60
2023/03/11 08:39:30;;;;;;;3.20;1.80;;;;;;;;;;767922;181;934994;-60
2023/03/11 08:41:56;;;;;;;3.30;2.37;;;;;;;;;;774703;181;919052;-63
2023/03/11 08:44:22;;;;;;;2.50;1.57;;;;;;;;;;772883;180;822151;-62
2023/03/11 08:46:48;;;;;;;2.40;1.67;;;;;;;;;;772571;181;713191;-59
2023/03/11 08:49:14;;;;;;;3.07;2.03;;;;;;;;;;771700;180;920677;-60
2023/03/11 08:51:39;;;;;;;3.63;2.37;;;;;;;;;;764187;183;816837;-63
2023/03/11 08:54:05;;;;;;;2.27;1.90;;;;;;;;;;774557;179;626973;-64
2023/03/11 08:56:31;;;;;;;2.60;1.80;;;;;;;;;;770737;181;630519;-62
2023/03/11 08:58:57;;;;;;;3.20;2.30;;;;;;;;;;776509;181;634406;-64
2023/03/11 09:01:23;;;;;;;3.50;2.47;;;;;;;;;;771945;180;633579;-65
2023/03/11 09:03:49;;;;;;;2.33;1.40;;;;;;;;;;773882;181;628122;-64
2023/03/11 09:06:15;;;;;;;3.33;2.23;;;;;;;;;;774439;181;818812;-64
2023/03/11 09:08:40;;;;;;;3.50;2.10;;;;;;;;;;774050;180;684562;-65
2023/03/11 09:11:06;;;;;;;2.80;2.07;;;;;;;;;;773066;181;613522;-63
2023/03/11 09:13:32;;;;;;;2.20;1.40;;;;;;;;;;774735;181;712496;-63
2023/03/11 09:15:58;;;;;;;3.43;2.30;;;;;;;;;;772921;179;916621;-63
2023/03/11 09:18:24;;;;;;;3.13;1.90;;;;;;;;;;772856;180;913364;-66
2023/03/11 09:20:49;;;;;;;3.33;2.60;;;;;;;;;;771742;181;807921;-66
2023/03/11 09:23:15;;;;;;;2.80;1.87;;;;;;;;;;775879;180;918690;-65
2023/03/11 09:25:41;;;;;;;2.87;1.90;;;;;;;;;;769837;180;919902;-66
2023/03/11 09:28:07;;;;;;;2.77;2.00;;;;;;;;;;768974;181;919161;-65
2023/03/11 09:30:33;;;;;;;3.90;2.50;;;;;;;;;;775627;181;917684;-64
2023/03/11 09:32:59;;;;;;;3.27;2.17;;;;;;;;;;771336;181;917269;-65
2023/03/11 09:35:25;;;;;;;6.27;2.40;;;;;;;;;;772113;181;919168;-65
2023/03/11 09:37:50;;;;;;;2.50;1.70;;;;;;;;;;777699;180;819597;-63
2023/03/11 09:40:16;;;;;;;2.83;1.87;;;;;;;;;;769124;181;922111;-64
2023/03/11 09:42:45;;;;;;;3.83;2.20;;;;;;;;;;770959;180;902535;-64
2023/03/11 09:45:13;;;;;;;3.40;2.50;;;;;;;;;;770354;181;919543;-62
2023/03/11 09:47:42;;;;;;;3.87;2.43;;;;;;;;;;774004;181;920789;-62
2023/03/11 09:50:10;;;;;;;2.87;2.10;;;;;;;;;;772181;181;817769;-64
2023/03/11 09:52:36;;;;;;;2.50;1.50;;;;;;;;;;774223;180;817333;-63
2023/03/11 09:55:02;;;;;;;3.23;2.10;;;;;;;;;;772626;181;817640;-63
2023/03/11 09:57:27;;;;;;;2.63;1.80;;;;;;;;;;765572;183;825031;-63
2023/03/11 09:59:53;;;;;;;4.20;1.80;;;;;;;;;;770251;181;850387;-64
2023/03/11 10:02:19;;;;;;;3.80;2.40;;;;;;;;;;771373;181;817861;-66
2023/03/11 10:04:48;;;;;;;3.30;2.17;;;;;;;;;;777015;181;816645;-63
2023/03/11 10:07:14;;;;;;;2.90;2.10;;;;;;;;;;770420;180;918790;-65
2023/03/11 10:09:51;;;;;;;3.60;2.10;;;;;;;;;;767561;181;921349;-65
2023/03/11 10:12:17;;;;;;;3.65;1.98;;;;;;;;;;769204;181;918812;-67
2023/03/11 10:14:49;;;;;;;3.23;2.30;;;;;;;;;;771641;179;920725;-65
2023/03/11 10:17:20;;;;;;;7.97;2.80;;;;;;;;;;765271;182;919400;-68
2023/03/11 10:19:46;;;;;;;3.37;2.23;;;;;;;;;;767271;180;923482;-67
2023/03/11 10:22:13;;;;;;;3.67;2.23;;;;;;;;;;768943;181;817372;-64
2023/03/11 10:24:54;;;;;;;3.70;2.03;;;;;;;;;;762989;183;818502;-67
2023/03/11 10:27:21;;;;;;;3.27;2.23;;;;;;;;;;764185;183;826092;-68
2023/03/11 10:29:47;;;;;;;4.70;2.87;;;;;;;;;;771350;181;816026;-66
2023/03/11 10:32:14;;;;;;;3.10;1.77;;;;;;;;;;771283;180;1020617;-68
2023/03/11 10:34:41;;;;;;;5.37;2.30;;;;;;;;;;772562;180;918835;-66
2023/03/11 10:37:08;;;;;;;3.53;2.20;;;;;;;;;;777677;177;919903;-67
2023/03/11 10:39:34;;;;;;;4.50;2.20;;;;;;;;;;769281;181;920555;-72
2023/03/11 10:42:01;;;;;;;3.50;2.50;;;;;;;;;;771101;181;817655;-68
2023/03/11 10:44:31;;;;;;;4.40;3.00;;;;;;;;;;776656;181;919579;-72
2023/03/11 10:46:57;;;;;;;3.10;2.40;;;;;;;;;;771390;181;818186;-72
2023/03/11 10:49:23;;;;;;;4.93;2.70;;;;;;;;;;771069;180;816540;-72
2023/03/11 10:51:49;;;;;;;4.17;2.60;;;;;;;;;;772913;180;879802;-73
2023/03/11 10:54:30;;;;;;;4.27;2.93;;;;;;;;;;777294;181;814331;-72
2023/03/11 10:56:56;;;;;;;3.30;2.23;;;;;;;;;;767048;180;818266;-72
2023/03/11 10:59:27;;;;;;;5.63;2.87;;;;;;;;;;767069;181;918815;-73
2023/03/11 11:01:52;;;;;;;3.37;2.30;;;;;;;;;;770567;181;889761;-71
2023/03/11 11:04:23;;;;;;;3.57;2.23;;;;;;;;;;774809;180;815763;-73
2023/03/11 11:06:49;;;;;;;4.20;2.77;;;;;;;;;;770405;181;845419;-74
2023/03/11 11:09:16;;;;;;;4.83;2.70;;;;;;;;;;772003;180;822312;-72
2023/03/11 11:11:42;;;;;;;3.63;3.00;;;;;;;;;;768784;181;801354;-73
2023/03/11 11:14:09;;;;;;;6.83;2.77;;;;;;;;;;775096;180;810806;-72
2023/03/11 11:16:33;;;;;;;4.80;3.53;;;;;;;;;;768666;180;858965;-72
2023/03/11 11:19:03;;;;;;;3.65;2.78;;;;;;;;;;770821;181;927364;-73
2023/03/11 11:21:32;;;;;;;4.20;3.00;;;;;;;;;;774902;181;919994;-75
2023/03/11 11:23:59;;;;;;;4.07;3.17;;;;;;;;;;770356;181;818399;-72
2023/03/11 11:26:25;;;;;;;3.57;2.60;;;;;;;;;;768823;180;917087;-74
2023/03/11 11:29:06;;;;;;;4.00;2.80;;;;;;;;;;769062;181;946475;-72
2023/03/11 11:31:32;;;;;;;4.60;2.63;;;;;;;;;;767992;180;923437;-75
2023/03/11 11:33:58;;;;;;;4.32;3.08;;;;;;;;;;776701;180;766270;-75
2023/03/11 11:36:24;;;;;;;4.33;3.00;;;;;;;;;;770506;180;883118;-73
2023/03/11 11:38:51;;;;;;;4.50;2.60;;;;;;;;;;768855;180;919899;-76
2023/03/11 11:41:17;;;;;;;3.83;2.67;;;;;;;;;;776035;180;690364;-73
2023/03/11 11:43:43;;;;;;;4.30;2.87;;;;;;;;;;768727;180;836358;-76
2023/03/11 11:46:15;;;;;;;4.65;3.22;;;;;;;;;;774239;179;803225;-76
2023/03/11 11:48:42;;;;;;;4.05;2.50;;;;;;;;;;776600;180;768513;-75
2023/03/11 11:51:09;;;;;;;4.27;3.10;;;;;;;;;;779289;180;812103;-74
2023/03/11 11:53:36;;;;;;;4.60;2.80;;;;;;;;;;774024;180;818137;-76
2023/03/11 11:56:02;;;;;;;5.10;2.60;;;;;;;;;;773547;180;791921;-75
2023/03/11 11:58:27;;;;;;;3.90;3.30;;;;;;;;;;776266;180;897792;-73
2023/03/11 12:00:55;;;;;;;4.13;2.83;;;;;;;;;;772011;181;917236;-72
2023/03/11 12:03:22;;;;;;;4.00;2.77;;;;;;;;;;774062;181;625732;-72
2023/03/11 12:05:54;;;;;;;5.60;3.20;;;;;;;;;;770450;180;876294;-73
2023/03/11 12:08:20;;;;;;;5.00;3.47;;;;;;;;;;773637;181;816109;-72
2023/03/11 12:10:50;;;;;;;3.43;2.83;;;;;;;;;;769077;181;875326;-77
2023/03/11 12:13:18;;;;;;;6.03;4.03;;;;;;;;;;771568;181;915468;-72
2023/03/11 12:15:47;;;;;;;4.10;2.87;;;;;;;;;;768455;179;914807;-73
2023/03/11 12:18:18;;;;;;;5.33;3.77;;;;;;;;;;773968;180;911949;-78
2023/03/11 12:20:45;;;;;;;6.93;3.27;;;;;;;;;;774617;180;814833;-76
2023/03/11 12:23:17;;;;;;;3.37;2.93;;;;;;;;;;772174;181;811403;-78
2023/03/11 12:25:43;;;;;;;4.20;2.93;;;;;;;;;;772776;180;905294;-71
2023/03/11 12:28:14;;;;;;;5.40;3.40;;;;;;;;;;774673;181;867029;-78
2023/03/11 12:30:40;;;;;;;5.10;3.20;;;;;;;;;;769319;178;686922;-71
2023/03/11 12:33:06;;;;;;;4.33;3.60;;;;;;;;;;767580;180;815366;-71
2023/03/11 12:35:32;;;;;;;4.93;2.77;;;;;;;;;;764734;179;907464;-77
2023/03/11 12:38:12;;;;;;;4.23;2.63;;;;;;;;;;772749;181;942751;-79
2023/03/11 12:40:57;;;;;;;5.63;3.83;;;;;;;;;;765541;182;917282;-79
2023/03/11 12:43:23;;;;;;;4.93;3.77;;;;;;;;;;765119;183;846447;-71
2023/03/11 12:45:49;;;;;;;4.40;2.77;;;;;;;;;;766720;181;916688;-71
2023/03/11 12:48:21;;;;;;;5.07;3.73;;;;;;;;;;771334;180;917661;-79
2023/03/11 12:50:48;;;;;;;5.60;3.70;;;;;;;;;;770944;181;815756;-77
2023/03/11 12:53:13;;;;;;;3.90;2.87;;;;;;;;;;775934;177;749330;-78
2023/03/11 12:55:39;;;;;;;7.47;4.10;;;;;;;;;;767837;181;845964;-69
2023/03/11 12:58:04;;;;;;;5.93;3.67;;;;;;;;;;771591;180;914154;-76
2023/03/11 13:00:48;;;;;;;31.77;18.50;;;;;;;;;;775210;180;815150;-70
2023/03/11 13:03:29;;;;;;;9.70;4.30;;;;;;;;;;767288;182;796913;-70
2023/03/11 13:05:57;;;;;;;5.90;4.10;;;;;;;;;;766699;182;770739;-69
2023/03/11 13:08:25;;;;;;;6.07;4.27;;;;;;;;;;771506;180;878572;-78
2023/03/11 13:10:51;;;;;;;6.27;4.97;;;;;;;;;;771757;180;798634;-69
2023/03/11 13:13:31;;;;;;;7.77;4.27;;;;;;;;;;774423;181;914971;-70
2023/03/11 13:15:57;;;;;;;10.50;5.43;;;;;;;;;;768100;181;915908;-79
2023/03/11 13:18:23;;;;;;;5.80;3.57;;;;;;;;;;771056;180;916962;-79
2023/03/11 13:20:50;;;;;;;6.43;4.53;;;;;;;;;;770502;181;916943;-78
2023/03/11 13:23:35;;;;;;;5.07;3.57;;;;;;;;;;771385;180;815249;-71
2023/03/11 13:26:16;;;;;;;6.47;3.50;;;;;;;;;;765829;181;1123045;-71
2023/03/11 13:28:57;;;;;;;7.30;4.40;;;;;;;;;;772555;180;909900;-78
2023/03/11 13:31:42;;;;;;;4.70;3.00;;;;;;;;;;767994;180;1024249;-72
2023/03/11 13:34:13;;;;;;;5.25;3.30;;;;;;;;;;765812;181;1019305;-74
2023/03/11 13:36:41;;;;;;;11.57;7.43;;;;;;;;;;772146;181;920398;-78
2023/03/11 13:39:24;;;;;;;7.80;4.63;;;;;;;;;;770177;180;816036;-77
2023/03/11 13:41:50;;;;;;;6.03;3.93;;;;;;;;;;770821;180;814415;-77
2023/03/11 13:44:31;;;;;;;4.03;3.33;;;;;;;;;;771130;181;716935;-78
2023/03/11 13:47:02;;;;;;;5.23;2.80;;;;;;;;;;772562;180;816273;-71
2023/03/11 13:49:30;;;;;;;4.83;3.50;;;;;;;;;;769098;178;909010;-71
2023/03/11 13:51:58;;;;;;;5.30;3.67;;;;;;;;;;773250;181;916681;-70
2023/03/11 13:54:38;;;;;;;4.47;3.27;;;;;;;;;;771212;180;936270;-71
2023/03/11 13:57:04;;;;;;;4.87;3.97;;;;;;;;;;770786;181;915625;-72
2023/03/11 13:59:30;;;;;;;6.60;3.87;;;;;;;;;;770805;180;918746;-71
2023/03/11 14:01:56;;;;;;;4.90;3.57;;;;;;;;;;775363;179;841657;-78
2023/03/11 14:04:24;;;;;;;7.20;3.60;;;;;;;;;;768095;181;918958;-79
2023/03/11 14:06:51;;;;;;;6.33;4.77;;;;;;;;;;770945;181;918574;-71
2023/03/11 14:09:18;;;;;;;6.87;3.33;;;;;;;;;;771771;180;861657;-78
2023/03/11 14:11:47;;;;;;;5.27;3.30;;;;;;;;;;777454;180;915871;-74
2023/03/11 14:14:10;;;;;;;5.32;3.60;;;;;;;;;;771020;180;932600;-78
2023/03/11 14:16:42;;;;;;;6.27;3.20;;;;;;;;;;771638;180;908643;-74
2023/03/11 14:19:03;;;;;;;5.50;3.60;;;;;;;;;;774537;180;912513;-73
2023/03/11 14:21:30;;;;;;;5.37;3.47;;;;;;;;;;771438;181;931023;-73
2023/03/11 14:23:54;;;;;;;4.60;3.07;;;;;;;;;;771122;180;811057;-73
2023/03/11 14:26:20;;;;;;;4.93;3.10;;;;;;;;;;774815;180;802587;-78